sensor_id;sensor_type;location;lat;lon;timestamp;pressure;altitude;pressure_sealevel;temperature;humidity
16580;BME280;8402;51.466;6.806;2023-03-01T00:00:31;102817.56;;;0.86;74.41
16580;BME280;8402;51.466;6.806;2023-03-01T00:03:00;102813.03;;;0.87;74.28
16580;BME280;8402;51.466;6.806;2023-03-01T00:05:30;102822.72;;;0.88;74.32
16580;BME280;8402;51.466;6.806;2023-03-01T00:08:00;102830.53;;;0.89;74.24
16580;BME280;8402;51.466;6.806;2023-03-01T00:10:33;102820.03;;;0.88;74.35
16580;BME280;8402;51.466;6.806;2023-03-01T00:13:03;102818.56;;;0.85;73.90
16580;BME280;8402;51.466;6.806;2023-03-01T00:15:33;102820.63;;;0.83;74.03
16580;BME280;8402;51.466;6.806;2023-03-01T00:18:08;102815.69;;;0.80;74.18
16580;BME280;8402;51.466;6.806;2023-03-01T00:20:38;102824.06;;;0.77;73.94
16580;BME280;8402;51.466;6.806;2023-03-01T00:23:08;102814.00;;;0.72;74.23
16580;BME280;8402;51.466;6.806;2023-03-01T00:25:43;102812.72;;;0.68;74.26
16580;BME280;8402;51.466;6.806;2023-03-01T00:28:14;102808.78;;;0.64;74.26
16580;BME280;8402;51.466;6.806;2023-03-01T00:30:44;102804.69;;;0.62;74.63
16580;BME280;8402;51.466;6.806;2023-03-01T00:33:13;102810.59;;;0.57;74.30
16580;BME280;8402;51.466;6.806;2023-03-01T00:35:44;102798.69;;;0.53;74.55
16580;BME280;8402;51.466;6.806;2023-03-01T00:38:14;102798.06;;;0.51;74.68
16580;BME280;8402;51.466;6.806;2023-03-01T00:40:46;102803.56;;;0.49;74.86
16580;BME280;8402;51.466;6.806;2023-03-01T00:43:16;102799.47;;;0.47;74.73
16580;BME280;8402;51.466;6.806;2023-03-01T00:45:46;102794.53;;;0.44;74.74
16580;BME280;8402;51.466;6.806;2023-03-01T00:48:16;102788.72;;;0.40;75.04
16580;BME280;8402;51.466;6.806;2023-03-01T00:50:45;102787.28;;;0.38;74.81
16580;BME280;8402;51.466;6.806;2023-03-01T00:53:15;102785.00;;;0.35;75.02
16580;BME280;8402;51.466;6.806;2023-03-01T00:55:48;102781.69;;;0.33;75.15
16580;BME280;8402;51.466;6.806;2023-03-01T00:58:17;102775.94;;;0.29;75.17
16580;BME280;8402;51.466;6.806;2023-03-01T01:00:47;102776.31;;;0.26;75.34
16580;BME280;8402;51.466;6.806;2023-03-01T01:03:18;102781.03;;;0.24;75.46
16580;BME280;8402;51.466;6.806;2023-03-01T01:05:47;102782.06;;;0.23;75.48
16580;BME280;8402;51.466;6.806;2023-03-01T01:08:17;102777.91;;;0.20;75.34
16580;BME280;8402;51.466;6.806;2023-03-01T01:10:50;102779.13;;;0.18;75.77
16580;BME280;8402;51.466;6.806;2023-03-01T01:13:19;102775.03;;;0.15;75.77
16580;BME280;8402;51.466;6.806;2023-03-01T01:15:49;102769.22;;;0.12;75.86
16580;BME280;8402;51.466;6.806;2023-03-01T01:18:19;102772.09;;;0.10;75.79
16580;BME280;8402;51.466;6.806;2023-03-01T01:20:49;102768.81;;;0.08;75.67
16580;BME280;8402;51.466;6.806;2023-03-01T01:23:19;102763.03;;;0.05;75.73
16580;BME280;8402;51.466;6.806;2023-03-01T01:25:51;102753.56;;;0.02;75.85
16580;BME280;8402;51.466;6.806;2023-03-01T01:28:21;102745.94;;;-0.01;75.72
16580;BME280;8402;51.466;6.806;2023-03-01T01:30:51;102749.00;;;-0.04;75.77
16580;BME280;8402;51.466;6.806;2023-03-01T01:33:21;102743.88;;;-0.06;75.68
16580;BME280;8402;51.466;6.806;2023-03-01T01:35:50;102737.06;;;-0.08;75.77
16580;BME280;8402;51.466;6.806;2023-03-01T01:38:21;102734.59;;;-0.10;75.95
16580;BME280;8402;51.466;6.806;2023-03-01T01:40:53;102730.47;;;-0.12;76.22
16580;BME280;8402;51.466;6.806;2023-03-01T01:43:27;102729.44;;;-0.11;76.49
16580;BME280;8402;51.466;6.806;2023-03-01T01:45:59;102731.72;;;-0.08;76.81
16580;BME280;8402;51.466;6.806;2023-03-01T01:48:37;102728.88;;;-0.07;76.62
16580;BME280;8402;51.466;6.806;2023-03-01T01:51:11;102730.53;;;-0.06;76.82
16580;BME280;8402;51.466;6.806;2023-03-01T01:53:42;102724.97;;;-0.04;76.72
16580;BME280;8402;51.466;6.806;2023-03-01T01:56:18;102724.97;;;-0.04;76.80
16580;BME280;8402;51.466;6.806;2023-03-01T01:58:49;102722.31;;;-0.04;76.61
16580;BME280;8402;51.466;6.806;2023-03-01T02:01:20;102730.31;;;-0.04;76.69
16580;BME280;8402;51.466;6.806;2023-03-01T02:03:50;102726.38;;;-0.08;76.31
16580;BME280;8402;51.466;6.806;2023-03-01T02:06:24;102733.75;;;-0.10;76.28
16580;BME280;8402;51.466;6.806;2023-03-01T02:08:59;102734.16;;;-0.13;76.25
16580;BME280;8402;51.466;6.806;2023-03-01T02:11:33;102730.22;;;-0.17;76.32
16580;BME280;8402;51.466;6.806;2023-03-01T02:14:05;102735.97;;;-0.20;76.58
16580;BME280;8402;51.466;6.806;2023-03-01T02:16:35;102726.69;;;-0.24;76.48
16580;BME280;8402;51.466;6.806;2023-03-01T02:19:06;102728.72;;;-0.26;76.30
16580;BME280;8402;51.466;6.806;2023-03-01T02:21:45;102715.13;;;-0.32;77.10
16580;BME280;8402;51.466;6.806;2023-03-01T02:24:24;102711.84;;;-0.34;77.01
16580;BME280;8402;51.466;6.806;2023-03-01T02:26:58;102706.88;;;-0.37;77.04
16580;BME280;8402;51.466;6.806;2023-03-01T02:29:32;102707.28;;;-0.40;77.26
16580;BME280;8402;51.466;6.806;2023-03-01T02:32:03;102697.81;;;-0.42;76.89
16580;BME280;8402;51.466;6.806;2023-03-01T02:34:34;102702.69;;;-0.46;76.95
16580;BME280;8402;51.466;6.806;2023-03-01T02:37:08;102703.09;;;-0.49;76.90
16580;BME280;8402;51.466;6.806;2023-03-01T02:39:44;102698.13;;;-0.52;77.43
16580;BME280;8402;51.466;6.806;2023-03-01T02:42:20;102700.19;;;-0.54;77.55
16580;BME280;8402;51.466;6.806;2023-03-01T02:44:55;102697.72;;;-0.56;77.66
16580;BME280;8402;51.466;6.806;2023-03-01T02:47:25;102699.72;;;-0.58;77.44
16580;BME280;8402;51.466;6.806;2023-03-01T02:49:55;102712.63;;;-0.61;77.31
16580;BME280;8402;51.466;6.806;2023-03-01T02:52:36;102714.00;;;-0.65;78.31
16580;BME280;8402;51.466;6.806;2023-03-01T02:55:12;102708.69;;;-0.65;77.61
16580;BME280;8402;51.466;6.806;2023-03-01T02:57:45;102708.25;;;-0.69;77.88
16580;BME280;8402;51.466;6.806;2023-03-01T03:00:22;102713.78;;;-0.70;78.13
16580;BME280;8402;51.466;6.806;2023-03-01T03:02:54;102708.81;;;-0.73;77.87
16580;BME280;8402;51.466;6.806;2023-03-01T03:05:26;102717.00;;;-0.75;78.03
16580;BME280;8402;51.466;6.806;2023-03-01T03:07:57;102711.25;;;-0.78;78.22
16580;BME280;8402;51.466;6.806;2023-03-01T03:10:33;102714.25;;;-0.81;77.91
16580;BME280;8402;51.466;6.806;2023-03-01T03:13:05;102718.97;;;-0.84;78.25
16580;BME280;8402;51.466;6.806;2023-03-01T03:15:38;102713.00;;;-0.86;78.51
16580;BME280;8402;51.466;6.806;2023-03-01T03:18:10;102714.66;;;-0.85;78.22
16580;BME280;8402;51.466;6.806;2023-03-01T03:20:41;102709.69;;;-0.88;78.35
16580;BME280;8402;51.466;6.806;2023-03-01T03:23:12;102707.22;;;-0.89;78.17
16580;BME280;8402;51.466;6.806;2023-03-01T03:25:42;102703.72;;;-0.90;78.44
16580;BME280;8402;51.466;6.806;2023-03-01T03:28:12;102711.09;;;-0.92;78.44
16580;BME280;8402;51.466;6.806;2023-03-01T03:30:45;102710.09;;;-0.91;78.55
16580;BME280;8402;51.466;6.806;2023-03-01T03:33:16;102706.78;;;-0.93;78.64
16580;BME280;8402;51.466;6.806;2023-03-01T03:35:48;102701.06;;;-0.90;78.91
16580;BME280;8402;51.466;6.806;2023-03-01T03:38:19;102693.69;;;-0.88;79.00
16580;BME280;8402;51.466;6.806;2023-03-01T03:40:51;102704.00;;;-0.85;78.74
16580;BME280;8402;51.466;6.806;2023-03-01T03:43:23;102694.97;;;-0.84;78.74
16580;BME280;8402;51.466;6.806;2023-03-01T03:45:55;102696.63;;;-0.82;78.57
16580;BME280;8402;51.466;6.806;2023-03-01T03:48:34;102691.28;;;-0.82;78.73
16580;BME280;8402;51.466;6.806;2023-03-01T03:51:04;102689.25;;;-0.80;78.45
16580;BME280;8402;51.466;6.806;2023-03-01T03:53:34;102693.97;;;-0.82;78.42
16580;BME280;8402;51.466;6.806;2023-03-01T03:56:05;102680.00;;;-0.85;78.12
16580;BME280;8402;51.466;6.806;2023-03-01T03:58:35;102684.69;;;-0.87;78.08
16580;BME280;8402;51.466;6.806;2023-03-01T04:01:08;102682.22;;;-0.88;78.46
16580;BME280;8402;51.466;6.806;2023-03-01T04:03:38;102678.09;;;-0.91;78.44
16580;BME280;8402;51.466;6.806;2023-03-01T04:06:08;102671.50;;;-0.95;78.46
16580;BME280;8402;51.466;6.806;2023-03-01T04:08:38;102668.19;;;-0.97;78.47
16580;BME280;8402;51.466;6.806;2023-03-01T04:11:08;102664.91;;;-0.99;78.25
16580;BME280;8402;51.466;6.806;2023-03-01T04:13:53;102659.94;;;-1.02;78.33
16580;BME280;8402;51.466;6.806;2023-03-01T04:16:26;102658.28;;;-1.03;78.56
16580;BME280;8402;51.466;6.806;2023-03-01T04:18:56;102661.16;;;-1.04;78.55
16580;BME280;8402;51.466;6.806;2023-03-01T04:21:27;102665.84;;;-1.06;78.56
16580;BME280;8402;51.466;6.806;2023-03-01T04:23:57;102666.84;;;-1.07;78.61
16580;BME280;8402;51.466;6.806;2023-03-01T04:26:27;102664.38;;;-1.09;78.51
16580;BME280;8402;51.466;6.806;2023-03-01T04:28:57;102661.28;;;-1.13;78.60
16580;BME280;8402;51.466;6.806;2023-03-01T04:31:32;102661.47;;;-1.14;78.90
16580;BME280;8402;51.466;6.806;2023-03-01T04:34:02;102658.16;;;-1.16;78.77
16580;BME280;8402;51.466;6.806;2023-03-01T04:36:31;102653.22;;;-1.19;78.55
16580;BME280;8402;51.466;6.806;2023-03-01T04:39:03;102662.22;;;-1.20;78.56
16580;BME280;8402;51.466;6.806;2023-03-01T04:41:39;102665.25;;;-1.23;78.84
16580;BME280;8402;51.466;6.806;2023-03-01T04:44:09;102660.94;;;-1.24;78.84
16580;BME280;8402;51.466;6.806;2023-03-01T04:46:42;102675.28;;;-1.25;78.96
16580;BME280;8402;51.466;6.806;2023-03-01T04:49:12;102667.47;;;-1.27;79.17
16580;BME280;8402;51.466;6.806;2023-03-01T04:51:42;102661.69;;;-1.30;79.02
16580;BME280;8402;51.466;6.806;2023-03-01T04:54:12;102661.06;;;-1.32;78.99
16580;BME280;8402;51.466;6.806;2023-03-01T04:56:43;102655.09;;;-1.34;79.30
16580;BME280;8402;51.466;6.806;2023-03-01T04:59:13;102654.44;;;-1.36;79.35
16580;BME280;8402;51.466;6.806;2023-03-01T05:01:45;102647.66;;;-1.39;79.26
16580;BME280;8402;51.466;6.806;2023-03-01T05:04:15;102651.34;;;-1.40;79.18
16580;BME280;8402;51.466;6.806;2023-03-01T05:06:45;102652.56;;;-1.43;79.38
16580;BME280;8402;51.466;6.806;2023-03-01T05:09:15;102649.22;;;-1.45;79.34
16580;BME280;8402;51.466;6.806;2023-03-01T05:11:46;102653.31;;;-1.49;79.56
16580;BME280;8402;51.466;6.806;2023-03-01T05:14:16;102651.66;;;-1.50;79.42
16580;BME280;8402;51.466;6.806;2023-03-01T05:16:49;102648.13;;;-1.50;79.65
16580;BME280;8402;51.466;6.806;2023-03-01T05:19:19;102645.88;;;-1.53;79.62
16580;BME280;8402;51.466;6.806;2023-03-01T05:21:49;102645.03;;;-1.54;79.72
16580;BME280;8402;51.466;6.806;2023-03-01T05:24:33;102644.22;;;-1.54;79.99
16580;BME280;8402;51.466;6.806;2023-03-01T05:27:03;102636.03;;;-1.53;80.38
16580;BME280;8402;51.466;6.806;2023-03-01T05:29:33;102641.00;;;-1.50;80.08
16580;BME280;8402;51.466;6.806;2023-03-01T05:32:06;102634.66;;;-1.49;80.23
16580;BME280;8402;51.466;6.806;2023-03-01T05:34:40;102628.69;;;-1.51;80.47
16580;BME280;8402;51.466;6.806;2023-03-01T05:37:10;102629.69;;;-1.52;80.76
16580;BME280;8402;51.466;6.806;2023-03-01T05:39:40;102631.72;;;-1.54;80.24
16580;BME280;8402;51.466;6.806;2023-03-01T05:42:10;102628.25;;;-1.54;80.53
16580;BME280;8402;51.466;6.806;2023-03-01T05:44:41;102634.78;;;-1.57;80.64
16580;BME280;8402;51.466;6.806;2023-03-01T05:47:15;102632.47;;;-1.60;80.70
16580;BME280;8402;51.466;6.806;2023-03-01T05:49:45;102628.34;;;-1.62;80.54
16580;BME280;8402;51.466;6.806;2023-03-01T05:52:16;102628.56;;;-1.64;80.70
16580;BME280;8402;51.466;6.806;2023-03-01T05:54:46;102634.84;;;-1.65;80.94
16580;BME280;8402;51.466;6.806;2023-03-01T05:57:16;102630.56;;;-1.66;80.95
16580;BME280;8402;51.466;6.806;2023-03-01T05:59:47;102634.03;;;-1.66;80.95
16580;BME280;8402;51.466;6.806;2023-03-01T06:02:19;102641.19;;;-1.66;80.96
16580;BME280;8402;51.466;6.806;2023-03-01T06:04:49;102637.91;;;-1.68;80.88
16580;BME280;8402;51.466;6.806;2023-03-01T06:07:19;102642.94;;;-1.73;81.40
16580;BME280;8402;51.466;6.806;2023-03-01T06:09:49;102648.47;;;-1.75;81.02
16580;BME280;8402;51.466;6.806;2023-03-01T06:12:18;102639.84;;;-1.77;81.36
16580;BME280;8402;51.466;6.806;2023-03-01T06:14:48;102640.69;;;-1.76;81.05
16580;BME280;8402;51.466;6.806;2023-03-01T06:17:21;102632.88;;;-1.78;81.62
16580;BME280;8402;51.466;6.806;2023-03-01T06:19:51;102628.75;;;-1.80;82.01
16580;BME280;8402;51.466;6.806;2023-03-01T06:22:21;102634.44;;;-1.83;81.73
16580;BME280;8402;51.466;6.806;2023-03-01T06:24:51;102620.50;;;-1.85;81.91
16580;BME280;8402;51.466;6.806;2023-03-01T06:27:25;102613.50;;;-1.86;81.46
16580;BME280;8402;51.466;6.806;2023-03-01T06:29:55;102614.53;;;-1.87;81.68
16580;BME280;8402;51.466;6.806;2023-03-01T06:32:28;102619.84;;;-1.87;82.37
16580;BME280;8402;51.466;6.806;2023-03-01T06:34:58;102622.88;;;-1.90;83.03
16580;BME280;8402;51.466;6.806;2023-03-01T06:37:28;102620.41;;;-1.92;83.30
16580;BME280;8402;51.466;6.806;2023-03-01T06:39:57;102621.25;;;-1.91;82.37
16580;BME280;8402;51.466;6.806;2023-03-01T06:42:31;102617.56;;;-1.90;82.65
16580;BME280;8402;51.466;6.806;2023-03-01T06:45:01;102620.22;;;-1.90;82.86
16580;BME280;8402;51.466;6.806;2023-03-01T06:47:34;102619.41;;;-1.91;83.55
16580;BME280;8402;51.466;6.806;2023-03-01T06:50:04;102621.25;;;-1.91;83.01
16580;BME280;8402;51.466;6.806;2023-03-01T06:52:34;102620.41;;;-1.92;82.79
16580;BME280;8402;51.466;6.806;2023-03-01T06:55:05;102627.38;;;-1.91;83.12
16580;BME280;8402;51.466;6.806;2023-03-01T06:57:35;102631.06;;;-1.92;84.27
16580;BME280;8402;51.466;6.806;2023-03-01T07:00:07;102628.22;;;-1.90;83.50
16580;BME280;8402;51.466;6.806;2023-03-01T07:02:39;102630.88;;;-1.90;83.60
16580;BME280;8402;51.466;6.806;2023-03-01T07:05:09;102626.19;;;-1.88;83.77
16580;BME280;8402;51.466;6.806;2023-03-01T07:07:39;102626.66;;;-1.85;83.71
16580;BME280;8402;51.466;6.806;2023-03-01T07:10:10;102625.84;;;-1.85;83.95
16580;BME280;8402;51.466;6.806;2023-03-01T07:12:40;102627.47;;;-1.84;83.91
16580;BME280;8402;51.466;6.806;2023-03-01T07:15:10;102627.09;;;-1.81;84.90
16580;BME280;8402;51.466;6.806;2023-03-01T07:17:44;102624.44;;;-1.81;85.00
16580;BME280;8402;51.466;6.806;2023-03-01T07:20:17;102632.31;;;-1.73;85.18
16580;BME280;8402;51.466;6.806;2023-03-01T07:22:49;102630.94;;;-1.69;85.22
16580;BME280;8402;51.466;6.806;2023-03-01T07:25:19;102624.88;;;-1.63;84.83
16580;BME280;8402;51.466;6.806;2023-03-01T07:27:49;102625.13;;;-1.58;84.71
16580;BME280;8402;51.466;6.806;2023-03-01T07:30:20;102620.06;;;-1.53;85.73
16580;BME280;8402;51.466;6.806;2023-03-01T07:32:56;102612.34;;;-1.48;85.46
16580;BME280;8402;51.466;6.806;2023-03-01T07:35:27;102618.78;;;-1.42;85.73
16580;BME280;8402;51.466;6.806;2023-03-01T07:37:57;102612.03;;;-1.38;86.01
16580;BME280;8402;51.466;6.806;2023-03-01T07:40:27;102611.47;;;-1.33;86.48
16580;BME280;8402;51.466;6.806;2023-03-01T07:42:58;102608.88;;;-1.27;85.74
16580;BME280;8402;51.466;6.806;2023-03-01T07:45:28;102606.28;;;-1.20;85.65
16580;BME280;8402;51.466;6.806;2023-03-01T07:48:01;102611.69;;;-1.14;85.69
16580;BME280;8402;51.466;6.806;2023-03-01T07:50:31;102600.44;;;-1.09;85.78
16580;BME280;8402;51.466;6.806;2023-03-01T07:53:01;102603.03;;;-0.94;85.63
16580;BME280;8402;51.466;6.806;2023-03-01T07:55:31;102608.53;;;-0.74;85.83
16580;BME280;8402;51.466;6.806;2023-03-01T07:58:01;102598.06;;;-0.48;85.54
16580;BME280;8402;51.466;6.806;2023-03-01T08:00:31;102604.19;;;-0.19;84.93
16580;BME280;8402;51.466;6.806;2023-03-01T08:03:05;102600.25;;;0.11;84.89
16580;BME280;8402;51.466;6.806;2023-03-01T08:05:35;102603.03;;;0.38;83.62
16580;BME280;8402;51.466;6.806;2023-03-01T08:08:05;102609.69;;;0.68;84.00
16580;BME280;8402;51.466;6.806;2023-03-01T08:10:36;102603.16;;;0.97;82.52
16580;BME280;8402;51.466;6.806;2023-03-01T08:13:06;102602.56;;;1.22;82.41
16580;BME280;8402;51.466;6.806;2023-03-01T08:15:36;102608.09;;;1.47;82.45
16580;BME280;8402;51.466;6.806;2023-03-01T08:18:09;102604.75;;;1.71;81.57
16580;BME280;8402;51.466;6.806;2023-03-01T08:20:39;102605.16;;;1.81;80.25
16580;BME280;8402;51.466;6.806;2023-03-01T08:23:11;102608.84;;;1.93;81.07
16580;BME280;8402;51.466;6.806;2023-03-01T08:25:41;102597.66;;;2.03;79.71
16580;BME280;8402;51.466;6.806;2023-03-01T08:28:11;102601.75;;;2.06;79.33
16580;BME280;8402;51.466;6.806;2023-03-01T08:30:40;102604.28;;;2.01;79.02
16580;BME280;8402;51.466;6.806;2023-03-01T08:33:13;102604.28;;;2.01;79.01
16580;BME280;8402;51.466;6.806;2023-03-01T08:35:43;102600.34;;;2.03;79.33
16580;BME280;8402;51.466;6.806;2023-03-01T08:38:13;102591.72;;;2.01;78.87
16580;BME280;8402;51.466;6.806;2023-03-01T08:40:44;102585.72;;;1.99;79.31
16580;BME280;8402;51.466;6.806;2023-03-01T08:43:14;102588.00;;;1.96;78.82
16580;BME280;8402;51.466;6.806;2023-03-01T08:45:44;102586.59;;;1.86;78.07
16580;BME280;8402;51.466;6.806;2023-03-01T08:48:16;102587.00;;;1.83;78.54
16580;BME280;8402;51.466;6.806;2023-03-01T08:50:46;102586.63;;;1.80;77.16
16580;BME280;8402;51.466;6.806;2023-03-01T08:53:16;102578.75;;;1.85;79.10
16580;BME280;8402;51.466;6.806;2023-03-01T08:55:48;102580.00;;;1.89;79.02
16580;BME280;8402;51.466;6.806;2023-03-01T08:58:18;102583.06;;;1.92;79.25
16580;BME280;8402;51.466;6.806;2023-03-01T09:00:48;102575.03;;;1.92;78.30
16580;BME280;8402;51.466;6.806;2023-03-01T09:03:20;102573.41;;;1.91;78.00
16580;BME280;8402;51.466;6.806;2023-03-01T09:05:50;102578.34;;;1.95;78.41
16580;BME280;8402;51.466;6.806;2023-03-01T09:08:20;102582.44;;;1.97;77.63
16580;BME280;8402;51.466;6.806;2023-03-01T09:10:50;102577.50;;;2.01;77.63
16580;BME280;8402;51.466;6.806;2023-03-01T09:13:21;102571.72;;;2.04;77.96
16580;BME280;8402;51.466;6.806;2023-03-01T09:15:51;102563.88;;;2.09;78.20
16580;BME280;8402;51.466;6.806;2023-03-01T09:18:24;102554.38;;;2.13;77.46
16580;BME280;8402;51.466;6.806;2023-03-01T09:21:00;102574.94;;;2.19;77.54
16580;BME280;8402;51.466;6.806;2023-03-01T09:23:34;102563.38;;;2.25;76.88
16580;BME280;8402;51.466;6.806;2023-03-01T09:26:06;102561.25;;;2.34;76.50
16580;BME280;8402;51.466;6.806;2023-03-01T09:28:37;102557.09;;;2.44;75.17
16580;BME280;8402;51.466;6.806;2023-03-01T09:31:09;102566.06;;;2.57;74.98
16580;BME280;8402;51.466;6.806;2023-03-01T09:33:44;102556.75;;;2.66;74.83
16580;BME280;8402;51.466;6.806;2023-03-01T09:36:17;102549.03;;;2.76;75.01
16580;BME280;8402;51.466;6.806;2023-03-01T09:38:50;102554.69;;;2.93;75.04
16580;BME280;8402;51.466;6.806;2023-03-01T09:41:46;102539.75;;;3.03;73.13
16580;BME280;8402;51.466;6.806;2023-03-01T09:44:31;102549.78;;;3.15;70.33
16580;BME280;8402;51.466;6.806;2023-03-01T09:47:09;102541.16;;;3.31;72.13
16580;BME280;8402;51.466;6.806;2023-03-01T09:49:50;102535.66;;;3.44;72.33
16580;BME280;8402;51.466;6.806;2023-03-01T09:52:26;102533.22;;;3.61;72.73
16580;BME280;8402;51.466;6.806;2023-03-01T09:54:59;102529.56;;;3.74;71.72
16580;BME280;8402;51.466;6.806;2023-03-01T09:57:35;102525.69;;;3.88;69.96
16580;BME280;8402;51.466;6.806;2023-03-01T10:03:04;102534.66;;;4.12;70.46
16580;BME280;8402;51.466;6.806;2023-03-01T10:05:50;102528.44;;;4.30;68.74
16580;BME280;8402;51.466;6.806;2023-03-01T10:08:28;102522.41;;;4.46;66.73
16580;BME280;8402;51.466;6.806;2023-03-01T10:11:03;102523.38;;;4.63;69.64
16580;BME280;8402;51.466;6.806;2023-03-01T10:13:41;102524.91;;;4.71;66.39
16580;BME280;8402;51.466;6.806;2023-03-01T10:16:16;102523.88;;;4.84;68.81
16580;BME280;8402;51.466;6.806;2023-03-01T10:18:53;102519.09;;;4.97;68.70
16580;BME280;8402;51.466;6.806;2023-03-01T10:21:28;102512.69;;;5.10;69.70
16580;BME280;8402;51.466;6.806;2023-03-01T10:24:08;102495.81;;;5.27;69.06
16580;BME280;8402;51.466;6.806;2023-03-01T10:26:47;102503.09;;;5.38;65.62
16580;BME280;8402;51.466;6.806;2023-03-01T10:29:18;102494.97;;;5.49;64.86
16580;BME280;8402;51.466;6.806;2023-03-01T10:31:54;102501.88;;;5.57;66.81
16580;BME280;8402;51.466;6.806;2023-03-01T10:34:28;102504.22;;;5.65;64.93
16580;BME280;8402;51.466;6.806;2023-03-01T10:37:10;102486.13;;;5.77;65.85
16580;BME280;8402;51.466;6.806;2023-03-01T10:40:02;102486.34;;;5.88;60.73
16580;BME280;8402;51.466;6.806;2023-03-01T10:42:38;102486.41;;;6.04;63.95
16580;BME280;8402;51.466;6.806;2023-03-01T10:45:19;102483.59;;;6.11;61.37
16580;BME280;8402;51.466;6.806;2023-03-01T10:48:11;102471.28;;;6.15;61.29
16580;BME280;8402;51.466;6.806;2023-03-01T10:50:44;102457.41;;;6.23;60.96
16580;BME280;8402;51.466;6.806;2023-03-01T10:53:28;102452.81;;;6.24;59.75
16580;BME280;8402;51.466;6.806;2023-03-01T10:56:01;102440.09;;;6.36;59.33
16580;BME280;8402;51.466;6.806;2023-03-01T10:58:32;102444.59;;;6.47;61.78
16580;BME280;8402;51.466;6.806;2023-03-01T11:01:04;102452.53;;;6.54;60.46
16580;BME280;8402;51.466;6.806;2023-03-01T11:03:36;102447.78;;;6.61;60.85
16580;BME280;8402;51.466;6.806;2023-03-01T11:06:21;102449.41;;;6.62;59.97
16580;BME280;8402;51.466;6.806;2023-03-01T11:08:55;102442.13;;;6.62;59.28
16580;BME280;8402;51.466;6.806;2023-03-01T11:11:32;102446.47;;;6.63;58.10
16580;BME280;8402;51.466;6.806;2023-03-01T11:14:06;102429.47;;;6.63;57.80
16580;BME280;8402;51.466;6.806;2023-03-01T11:16:59;102431.09;;;6.64;55.45
16580;BME280;8402;51.466;6.806;2023-03-01T11:19:30;102432.97;;;6.80;58.99
16580;BME280;8402;51.466;6.806;2023-03-01T11:22:03;102420.94;;;6.88;59.13
16580;BME280;8402;51.466;6.806;2023-03-01T11:24:41;102407.19;;;6.89;58.38
16580;BME280;8402;51.466;6.806;2023-03-01T11:27:17;102410.63;;;7.02;60.16
16580;BME280;8402;51.466;6.806;2023-03-01T11:29:52;102419.91;;;7.11;59.64
16580;BME280;8402;51.466;6.806;2023-03-01T11:32:27;102407.59;;;7.20;61.08
16580;BME280;8402;51.466;6.806;2023-03-01T11:35:02;102416.94;;;7.29;59.75
16580;BME280;8402;51.466;6.806;2023-03-01T11:37:37;102414.16;;;7.24;57.27
16580;BME280;8402;51.466;6.806;2023-03-01T11:40:19;102407.59;;;7.20;56.82
16580;BME280;8402;51.466;6.806;2023-03-01T11:43:02;102414.16;;;7.24;57.27
16580;BME280;8402;51.466;6.806;2023-03-01T11:45:43;102406.13;;;7.29;56.72
16580;BME280;8402;51.466;6.806;2023-03-01T11:48:38;102418.84;;;7.34;55.54
16580;BME280;8402;51.466;6.806;2023-03-01T11:51:22;102420.00;;;7.38;52.19
16580;BME280;8402;51.466;6.806;2023-03-01T11:54:12;102413.34;;;7.45;55.74
16580;BME280;8402;51.466;6.806;2023-03-01T11:56:48;102418.22;;;7.49;55.87
16580;BME280;8402;51.466;6.806;2023-03-01T12:08:47;102399.00;;;7.45;54.30
16580;BME280;8402;51.466;6.806;2023-03-01T12:11:32;102400.91;;;7.44;53.76
16580;BME280;8402;51.466;6.806;2023-03-01T12:14:28;102397.19;;;7.51;55.47
16580;BME280;8402;51.466;6.806;2023-03-01T12:17:16;102388.38;;;7.60;55.37
16580;BME280;8402;51.466;6.806;2023-03-01T12:20:05;102381.81;;;7.51;51.78
16580;BME280;8402;51.466;6.806;2023-03-01T12:22:51;102384.25;;;7.53;53.30
16580;BME280;8402;51.466;6.806;2023-03-01T12:25:29;102378.91;;;7.58;53.94
16580;BME280;8402;51.466;6.806;2023-03-01T12:28:31;102373.94;;;7.50;51.52
16580;BME280;8402;51.466;6.806;2023-03-01T12:31:37;102358.34;;;7.57;53.56
16580;BME280;8402;51.466;6.806;2023-03-01T12:34:31;102362.63;;;7.53;51.47
16580;BME280;8402;51.466;6.806;2023-03-01T12:37:22;102347.03;;;7.60;54.32
16580;BME280;8402;51.466;6.806;2023-03-01T12:40:20;102349.06;;;7.48;51.11
16580;BME280;8402;51.466;6.806;2023-03-01T12:43:01;102350.69;;;7.49;51.51
16580;BME280;8402;51.466;6.806;2023-03-01T12:45:47;102345.91;;;7.56;52.55
16580;BME280;8402;51.466;6.806;2023-03-01T12:48:33;102337.06;;;7.60;52.95
16580;BME280;8402;51.466;6.806;2023-03-01T12:51:10;102333.63;;;7.70;54.46
16580;BME280;8402;51.466;6.806;2023-03-01T12:53:44;102332.78;;;7.64;53.37
16580;BME280;8402;51.466;6.806;2023-03-01T12:56:19;102335.78;;;7.68;54.33
16580;BME280;8402;51.466;6.806;2023-03-01T12:58:57;102333.06;;;7.68;53.56
16580;BME280;8402;51.466;6.806;2023-03-01T13:01:36;102330.91;;;7.65;52.79
16580;BME280;8402;51.466;6.806;2023-03-01T13:04:18;102332.38;;;7.51;51.70
16580;BME280;8402;51.466;6.806;2023-03-01T13:06:58;102326.34;;;7.43;52.10
16580;BME280;8402;51.466;6.806;2023-03-01T13:09:36;102330.06;;;7.37;51.22
16580;BME280;8402;51.466;6.806;2023-03-01T13:15:26;102322.59;;;7.44;53.19
16580;BME280;8402;51.466;6.806;2023-03-01T13:17:57;102330.69;;;7.44;52.23
16580;BME280;8402;51.466;6.806;2023-03-01T13:20:35;102313.34;;;7.40;51.01
16580;BME280;8402;51.466;6.806;2023-03-01T13:23:25;102316.56;;;7.37;50.47
16580;BME280;8402;51.466;6.806;2023-03-01T13:26:11;102304.75;;;7.43;51.98
16580;BME280;8402;51.466;6.806;2023-03-01T13:28:52;102305.56;;;7.44;51.05
16580;BME280;8402;51.466;6.806;2023-03-01T13:34:56;102298.75;;;7.41;49.97
16580;BME280;8402;51.466;6.806;2023-03-01T13:37:37;102292.91;;;7.50;51.43
16580;BME280;8402;51.466;6.806;2023-03-01T13:43:28;102287.50;;;7.50;50.30
16580;BME280;8402;51.466;6.806;2023-03-01T13:45:59;102282.94;;;7.50;49.37
16580;BME280;8402;51.466;6.806;2023-03-01T13:48:31;102281.06;;;7.51;49.72
16580;BME280;8402;51.466;6.806;2023-03-01T13:51:03;102280.47;;;7.49;48.91
16580;BME280;8402;51.466;6.806;2023-03-01T13:53:40;102275.06;;;7.49;49.98
16580;BME280;8402;51.466;6.806;2023-03-01T13:56:13;102271.88;;;7.52;50.66
16580;BME280;8402;51.466;6.806;2023-03-01T13:58:48;102260.00;;;7.53;50.74
16580;BME280;8402;51.466;6.806;2023-03-01T14:01:24;102252.22;;;7.61;52.13